Time;durP1;ratioP1;P1;durP2;ratioP2;P2;SDS_P1;SDS_P2;PMS_P1;PMS_P2;Temp;Humidity;BMP_temperature;BMP_pressure;BME280_temperature;BME280_humidity;BME280_pressure;Samples;Min_cycle;Max_cycle;Signal;HPM_P1;HPM_P2
2022/11/27 00:01:54;;;;;;;15.07;5.30;;;;;;;6.75;100.00;102430.84;2614746;36;20475;-46
2022/11/27 00:04:25;;;;;;;13.05;4.97;;;;;;;6.78;100.00;102425.34;2613697;36;20042;-51
2022/11/27 00:06:54;;;;;;;11.80;4.95;;;;;;;6.78;100.00;102417.34;2615026;36;20118;-50
2022/11/27 00:09:22;;;;;;;13.55;4.63;;;;;;;6.72;100.00;102422.13;2615503;36;20023;-49
2022/11/27 00:11:50;;;;;;;12.77;4.97;;;;;;;6.64;100.00;102412.66;2614910;36;22272;-46
2022/11/27 00:14:19;;;;;;;18.55;5.00;;;;;;;6.60;100.00;102411.06;2613191;36;20037;-50
2022/11/27 00:16:47;;;;;;;16.42;4.90;;;;;;;6.57;100.00;102416.53;2609895;36;20089;-47
2022/11/27 00:19:16;;;;;;;15.23;4.80;;;;;;;6.69;100.00;102403.53;2612441;36;20039;-53
2022/11/27 00:21:47;;;;;;;15.53;5.10;;;;;;;6.66;100.00;102399.19;2612132;36;20034;-47
2022/11/27 00:24:15;;;;;;;15.38;6.22;;;;;;;6.67;100.00;102395.59;2611710;36;20307;-49
2022/11/27 00:26:45;;;;;;;10.25;4.68;;;;;;;6.68;100.00;102389.28;2609623;36;20038;-50
2022/11/27 00:29:14;;;;;;;9.98;4.38;;;;;;;6.63;100.00;102385.97;2612079;36;20034;-55
2022/11/27 00:31:42;;;;;;;13.98;5.18;;;;;;;6.59;100.00;102387.91;2609837;36;20042;-50
2022/11/27 00:34:12;;;;;;;16.10;5.30;;;;;;;6.62;100.00;102374.38;2594284;36;20482;-46
2022/11/27 00:36:40;;;;;;;14.20;5.00;;;;;;;6.63;100.00;102381.47;2607722;31;20035;-54
2022/11/27 00:39:11;;;;;;;14.30;6.20;;;;;;;6.68;100.00;102375.91;2616052;36;20549;-52
2022/11/27 00:41:40;;;;;;;14.95;4.78;;;;;;;6.71;100.00;102369.53;2614286;36;20062;-48
2022/11/27 00:44:08;;;;;;;15.23;4.93;;;;;;;6.60;100.00;102368.25;2614745;31;20148;-47
2022/11/27 00:46:39;;;;;;;12.95;5.00;;;;;;;6.62;100.00;102366.34;2615779;31;20061;-52
2022/11/27 00:49:08;;;;;;;14.70;4.70;;;;;;;6.58;100.00;102370.13;2613085;36;22043;-50
2022/11/27 00:51:37;;;;;;;13.02;5.07;;;;;;;6.55;100.00;102377.44;2610285;36;20041;-47
2022/11/27 00:54:06;;;;;;;11.93;4.80;;;;;;;6.63;100.00;102372.59;2612546;36;20453;-49
2022/11/27 00:56:38;;;;;;;15.75;4.68;;;;;;;6.48;100.00;102368.84;2611686;36;20061;-49
2022/11/27 00:59:09;;;;;;;11.55;4.72;;;;;;;6.64;100.00;102364.50;2611068;36;20061;-49
2022/11/27 01:01:40;;;;;;;12.50;4.70;;;;;;;6.59;100.00;102366.50;2613486;31;21376;-51
2022/11/27 01:04:10;;;;;;;12.65;4.80;;;;;;;6.56;100.00;102365.78;2612207;36;20023;-54
2022/11/27 01:06:42;;;;;;;12.32;5.05;;;;;;;6.49;100.00;102371.44;2610686;54;20031;-53
2022/11/27 01:09:12;;;;;;;11.63;4.68;;;;;;;6.61;100.00;102375.34;2611750;36;20038;-47
2022/11/27 01:11:44;;;;;;;12.52;4.78;;;;;;;6.61;100.00;102375.34;2612648;31;20034;-54
2022/11/27 01:14:15;;;;;;;17.33;4.40;;;;;;;6.56;100.00;102377.34;2611420;31;20022;-52
2022/11/27 01:16:43;;;;;;;12.57;4.70;;;;;;;6.58;100.00;102374.59;2610354;36;20039;-52
2022/11/27 01:19:15;;;;;;;19.00;5.72;;;;;;;6.63;100.00;102378.78;2614761;36;20031;-49
2022/11/27 01:21:44;;;;;;;9.82;4.78;;;;;;;6.66;100.00;102369.75;2615922;36;20065;-53
2022/11/27 01:24:15;;;;;;;14.77;5.05;;;;;;;6.58;100.00;102348.72;2610863;36;20038;-50
2022/11/27 01:26:46;;;;;;;11.32;4.35;;;;;;;6.55;100.00;102348.88;2612318;36;20034;-50
2022/11/27 01:29:14;;;;;;;12.05;4.22;;;;;;;6.48;100.00;102334.91;2613116;36;20041;-47
2022/11/27 01:31:43;;;;;;;14.90;4.83;;;;;;;6.45;100.00;102339.56;2614569;36;20034;-50
2022/11/27 01:34:17;;;;;;;12.90;4.67;;;;;;;6.57;100.00;102338.09;2613504;31;20030;-49
2022/11/27 01:36:45;;;;;;;12.70;4.95;;;;;;;6.49;100.00;102334.00;2613072;36;20143;-56
2022/11/27 01:39:17;;;;;;;11.70;4.32;;;;;;;6.52;100.00;102338.31;2616068;36;20030;-53
2022/11/27 01:41:49;;;;;;;11.55;3.85;;;;;;;6.59;100.00;102345.09;2615881;36;20125;-49
2022/11/27 01:44:50;;;;;;;8.93;4.35;;;;;;;6.57;100.00;102336.28;2617286;31;20034;-50
2022/11/27 01:47:28;;;;;;;14.90;5.80;;;;;;;6.60;100.00;102324.59;2616962;31;20019;-53
2022/11/27 01:50:03;;;;;;;15.63;4.75;;;;;;;6.58;100.00;102324.66;2616236;32;20081;-51
2022/11/27 01:52:36;;;;;;;14.57;4.30;;;;;;;6.55;100.00;102310.53;2616071;31;20030;-53
2022/11/27 01:55:09;;;;;;;15.13;4.45;;;;;;;6.48;100.00;102297.47;2617353;31;20015;-52
2022/11/27 01:57:43;;;;;;;17.30;4.78;;;;;;;6.53;100.00;102286.53;2616385;36;20031;-48
2022/11/27 02:00:17;;;;;;;13.80;4.25;;;;;;;6.51;100.00;102283.09;2617027;36;20442;-48
2022/11/27 02:02:47;;;;;;;12.55;4.15;;;;;;;6.46;100.00;102285.09;2616820;36;20815;-50
2022/11/27 02:05:18;;;;;;;11.07;3.85;;;;;;;6.56;100.00;102267.66;2616769;31;20479;-51
2022/11/27 02:07:47;;;;;;;12.85;3.95;;;;;;;6.48;100.00;102267.19;2613981;36;20563;-48
2022/11/27 02:10:16;;;;;;;11.25;4.40;;;;;;;6.47;100.00;102255.63;2612315;36;20069;-56
2022/11/27 02:12:53;;;;;;;;;;;;;;;6.50;100.00;102259.94;2612801;36;20042;-48
2022/11/27 02:15:28;;;;;;;14.88;4.43;;;;;;;6.53;100.00;102259.78;2613288;36;20339;-49
2022/11/27 02:18:05;;;;;;;10.90;4.18;;;;;;;6.60;100.00;102245.19;2613251;31;20038;-53
2022/11/27 02:20:45;;;;;;;11.55;4.78;;;;;;;6.57;100.00;102244.47;2612863;31;20046;-52
2022/11/27 02:23:55;;;;;;;12.82;4.18;;;;;;;6.59;100.00;102246.13;2613870;36;20515;-50
2022/11/27 02:26:52;;;;;;;12.13;4.80;;;;;;;6.61;100.00;102236.22;2612034;31;20212;-48
2022/11/27 02:29:26;;;;;;;13.23;4.10;;;;;;;6.56;100.00;102230.22;2611764;36;20563;-54
2022/11/27 02:31:59;;;;;;;15.23;5.07;;;;;;;6.57;100.00;102231.97;2612927;36;20034;-53
2022/11/27 02:34:35;;;;;;;13.52;4.35;;;;;;;6.52;100.00;102225.97;2613933;36;20061;-47
2022/11/27 02:37:14;;;;;;;15.25;4.82;;;;;;;6.55;100.00;102228.50;2611368;36;20860;-53
2022/11/27 02:40:01;;;;;;;12.00;4.45;;;;;;;6.63;100.00;102239.69;2610837;36;21363;-47
2022/11/27 02:42:33;;;;;;;7.82;4.10;;;;;;;6.60;100.00;102234.47;2613172;36;20412;-48
2022/11/27 02:45:10;;;;;;;13.75;4.80;;;;;;;6.62;100.00;102243.28;2612779;36;20031;-46
2022/11/27 02:47:41;;;;;;;13.10;4.20;;;;;;;6.66;100.00;102238.66;2612871;36;20031;-54
2022/11/27 02:50:14;;;;;;;9.30;3.97;;;;;;;6.66;100.00;102242.19;2611772;36;20029;-51
2022/11/27 02:52:44;;;;;;;9.93;3.95;;;;;;;6.71;100.00;102241.09;2613953;36;20033;-49
2022/11/27 02:55:17;;;;;;;11.50;4.00;;;;;;;6.69;100.00;102251.03;2613024;36;20035;-46
2022/11/27 02:57:47;;;;;;;13.77;4.95;;;;;;;6.69;100.00;102254.56;2612086;36;20559;-47
2022/11/27 03:00:19;;;;;;;10.68;3.85;;;;;;;6.76;100.00;102255.13;2613288;36;20038;-51
2022/11/27 03:02:53;;;;;;;12.15;3.90;;;;;;;6.75;100.00;102246.22;2612677;36;20034;-54
2022/11/27 03:05:23;;;;;;;11.32;3.92;;;;;;;6.75;100.00;102235.50;2615497;31;20026;-53
2022/11/27 03:07:55;;;;;;;9.82;3.42;;;;;;;6.79;100.00;102234.44;2613739;36;20030;-51
2022/11/27 03:10:30;;;;;;;10.73;3.88;;;;;;;6.82;100.00;102220.88;2614064;36;20039;-55
2022/11/27 03:13:00;;;;;;;15.68;4.30;;;;;;;6.71;100.00;102220.56;2615224;36;20035;-48
2022/11/27 03:15:41;;;;;;;8.80;3.63;;;;;;;6.75;100.00;102216.78;2614597;36;20034;-50
2022/11/27 03:18:18;;;;;;;13.15;4.55;;;;;;;6.71;100.00;102222.38;2614654;36;20042;-54
2022/11/27 03:20:52;;;;;;;12.05;3.95;;;;;;;6.65;100.00;102211.06;2614542;31;20053;-52
2022/11/27 03:23:20;;;;;;;9.48;3.45;;;;;;;6.82;100.00;102209.31;2615029;36;20030;-52
2022/11/27 03:25:49;;;;;;;13.50;4.10;;;;;;;6.73;100.00;102218.69;2615830;36;20039;-55
2022/11/27 03:28:17;;;;;;;8.20;3.25;;;;;;;6.66;100.00;102211.91;2615728;36;20054;-48
2022/11/27 03:30:49;;;;;;;10.10;4.13;;;;;;;6.76;100.00;102223.03;2615964;36;20554;-49
2022/11/27 03:33:17;;;;;;;11.98;4.00;;;;;;;6.74;100.00;102215.03;2615504;36;20035;-49
2022/11/27 03:35:45;;;;;;;11.82;4.38;;;;;;;6.65;100.00;102210.16;2615545;36;20026;-54
2022/11/27 03:38:15;;;;;;;11.50;4.47;;;;;;;6.64;100.00;102222.69;2615835;36;20034;-49
2022/11/27 03:40:51;;;;;;;15.25;5.30;;;;;;;6.74;100.00;102219.53;2616895;36;20038;-48
2022/11/27 03:43:25;;;;;;;10.15;4.00;;;;;;;6.58;100.00;102209.63;2616999;36;20045;-48
2022/11/27 03:46:01;;;;;;;14.70;4.47;;;;;;;6.64;100.00;102212.00;2617353;31;20141;-53
2022/11/27 03:48:39;;;;;;;12.68;3.92;;;;;;;6.70;100.00;102209.94;2617270;36;20039;-50
2022/11/27 03:51:15;;;;;;;11.68;4.68;;;;;;;6.60;100.00;102212.22;2616148;36;20030;-50
2022/11/27 03:53:53;;;;;;;7.78;4.15;;;;;;;6.66;100.00;102194.03;2617017;36;20023;-52
2022/11/27 03:56:35;;;;;;;8.77;3.73;;;;;;;6.96;100.00;102193.44;2613497;36;20041;-50
2022/11/27 03:59:07;;;;;;;9.52;4.10;;;;;;;6.59;100.00;102189.94;2614297;36;20042;-48
2022/11/27 04:01:38;;;;;;;12.18;4.53;;;;;;;6.66;100.00;102191.38;2614091;36;20026;-50
2022/11/27 04:04:07;;;;;;;9.85;4.00;;;;;;;6.66;100.00;102187.84;2616347;36;20023;-49
2022/11/27 04:06:35;;;;;;;10.60;3.80;;;;;;;6.74;100.00;102195.47;2615351;36;20430;-49
2022/11/27 04:09:03;;;;;;;12.32;4.68;;;;;;;6.70;100.00;102189.41;2617078;36;20303;-48
2022/11/27 04:11:32;;;;;;;11.07;3.97;;;;;;;6.65;100.00;102194.13;2615549;36;20031;-51
2022/11/27 04:14:00;;;;;;;10.38;4.32;;;;;;;6.69;100.00;102178.78;2616081;36;20053;-48
2022/11/27 04:16:29;;;;;;;9.63;4.00;;;;;;;6.65;100.00;102186.97;2616039;36;20042;-53
2022/11/27 04:19:00;;;;;;;14.43;4.75;;;;;;;6.59;100.00;102183.72;2613683;36;20035;-48
2022/11/27 04:21:28;;;;;;;11.63;3.92;;;;;;;6.65;100.00;102181.63;2614827;36;20038;-50
2022/11/27 04:23:56;;;;;;;8.75;3.67;;;;;;;6.67;100.00;102170.84;2616473;31;20029;-54
2022/11/27 04:26:25;;;;;;;7.25;3.67;;;;;;;6.66;100.00;102179.81;2614890;36;20038;-49
2022/11/27 04:28:53;;;;;;;7.78;3.13;;;;;;;6.65;100.00;102172.72;2616079;36;20117;-48
2022/11/27 04:31:21;;;;;;;8.48;4.00;;;;;;;6.60;100.00;102189.00;2615966;31;20034;-55
2022/11/27 04:33:50;;;;;;;12.00;3.45;;;;;;;6.58;100.00;102193.56;2616028;36;20426;-47
2022/11/27 04:36:20;;;;;;;11.27;4.10;;;;;;;6.58;100.00;102193.56;2614479;36;20042;-49
2022/11/27 04:38:49;;;;;;;10.82;3.97;;;;;;;6.57;100.00;102186.47;2615787;36;20041;-47
2022/11/27 04:41:17;;;;;;;10.30;3.42;;;;;;;6.54;100.00;102186.66;2614603;36;20061;-55
2022/11/27 04:43:45;;;;;;;7.18;3.80;;;;;;;6.55;100.00;102177.69;2616250;36;20038;-50
2022/11/27 04:46:14;;;;;;;7.18;3.47;;;;;;;6.56;100.00;102184.75;2616226;36;20030;-52
2022/11/27 04:48:42;;;;;;;7.30;2.83;;;;;;;6.60;100.00;102180.97;2616422;36;20038;-48
2022/11/27 04:51:10;;;;;;;6.72;3.60;;;;;;;6.55;100.00;102177.69;2615357;36;20034;-53
2022/11/27 04:53:41;;;;;;;7.30;3.45;;;;;;;6.56;100.00;102167.84;2615519;36;20023;-51
2022/11/27 04:56:12;;;;;;;8.57;3.17;;;;;;;6.69;100.00;102162.75;2614516;36;20040;-54
2022/11/27 04:58:41;;;;;;;6.35;2.83;;;;;;;6.71;100.00;102152.81;2615649;36;20034;-53
2022/11/27 05:01:10;;;;;;;5.40;3.00;;;;;;;6.62;100.00;102151.47;2616049;36;20031;-49
2022/11/27 05:03:38;;;;;;;6.97;2.83;;;;;;;6.72;100.00;102147.38;2615451;36;20031;-55
2022/11/27 05:06:07;;;;;;;5.97;2.88;;;;;;;6.76;100.00;102140.06;2614797;31;20022;-47
2022/11/27 05:08:36;;;;;;;9.65;3.15;;;;;;;6.70;100.00;102135.91;2615029;36;20041;-47
2022/11/27 05:11:09;;;;;;;6.27;2.77;;;;;;;6.68;100.00;102129.75;2613209;36;20727;-52
2022/11/27 05:13:38;;;;;;;8.57;3.05;;;;;;;6.66;100.00;102126.31;2612508;36;20126;-52
2022/11/27 05:16:07;;;;;;;3.90;2.42;;;;;;;6.63;100.00;102142.50;2611978;31;20749;-57
2022/11/27 05:18:36;;;;;;;6.57;3.00;;;;;;;6.66;100.00;102143.19;2611776;31;20022;-57
2022/11/27 05:21:06;;;;;;;9.00;3.43;;;;;;;6.70;100.00;102140.38;2609795;36;20065;-53
2022/11/27 05:23:35;;;;;;;7.07;3.08;;;;;;;6.78;100.00;102132.81;2615969;36;20581;-50
2022/11/27 05:26:06;;;;;;;5.90;2.63;;;;;;;6.86;100.00;102129.72;2615703;36;20065;-49
2022/11/27 05:28:35;;;;;;;6.03;3.00;;;;;;;6.74;100.00;102128.56;2617278;31;20461;-51
2022/11/27 05:31:03;;;;;;;5.57;2.70;;;;;;;6.78;100.00;102120.28;2616730;36;20454;-54
2022/11/27 05:33:31;;;;;;;6.10;2.85;;;;;;;6.73;100.00;102117.00;2616557;36;20026;-57
2022/11/27 05:35:59;;;;;;;5.13;2.40;;;;;;;6.88;100.00;102107.31;2615464;36;20428;-52
2022/11/27 05:38:28;;;;;;;9.60;2.97;;;;;;;6.89;100.00;102117.06;2615931;36;20553;-53
2022/11/27 05:40:56;;;;;;;7.50;2.30;;;;;;;6.96;100.00;102118.47;2616081;36;20057;-54
2022/11/27 05:43:27;;;;;;;6.20;2.38;;;;;;;6.94;100.00;102104.28;2617022;31;20027;-50
2022/11/27 05:45:55;;;;;;;4.60;1.90;;;;;;;7.05;100.00;102102.84;2616800;36;20752;-50
2022/11/27 05:48:23;;;;;;;6.93;2.72;;;;;;;7.12;100.00;102101.59;2615954;36;20127;-48
2022/11/27 05:50:52;;;;;;;8.82;2.53;;;;;;;7.08;100.00;102091.97;2614618;36;20030;-52
2022/11/27 05:53:20;;;;;;;7.88;2.38;;;;;;;7.10;100.00;102088.28;2616429;31;20027;-50
2022/11/27 05:55:48;;;;;;;6.45;2.10;;;;;;;7.09;100.00;102094.56;2615192;36;20566;-52
2022/11/27 05:58:17;;;;;;;7.53;2.30;;;;;;;7.15;100.00;102091.56;2614475;36;20042;-52
2022/11/27 06:00:48;;;;;;;7.40;2.30;;;;;;;7.10;100.00;102088.28;2616774;31;20865;-49
2022/11/27 06:03:16;;;;;;;4.78;2.28;;;;;;;7.11;100.00;102091.81;2615991;36;20023;-54
2022/11/27 06:05:45;;;;;;;4.82;2.00;;;;;;;7.12;100.00;102097.06;2615535;36;20034;-49
2022/11/27 06:08:13;;;;;;;4.43;2.10;;;;;;;7.14;100.00;102088.97;2615606;31;20022;-51
2022/11/27 06:10:42;;;;;;;4.65;2.42;;;;;;;7.22;100.00;102085.88;2615914;36;21097;-53
2022/11/27 06:13:10;;;;;;;6.40;2.30;;;;;;;7.06;100.00;102064.44;2616077;36;20404;-50
2022/11/27 06:15:39;;;;;;;8.55;2.35;;;;;;;7.09;100.00;102089.22;2616278;36;20042;-49
2022/11/27 06:18:12;;;;;;;4.35;2.13;;;;;;;7.15;100.00;102085.34;2615619;36;20026;-52
2022/11/27 06:20:40;;;;;;;4.97;2.10;;;;;;;7.17;100.00;102075.44;2615515;36;20030;-51
2022/11/27 06:23:08;;;;;;;4.43;2.10;;;;;;;7.17;100.00;102078.97;2616524;36;20049;-51
2022/11/27 06:25:37;;;;;;;5.25;2.38;;;;;;;7.20;100.00;102080.63;2616587;36;20057;-54
2022/11/27 06:28:05;;;;;;;6.35;2.50;;;;;;;7.08;100.00;102081.28;2614419;36;20034;-54
2022/11/27 06:30:34;;;;;;;6.88;2.13;;;;;;;7.10;100.00;102074.91;2613487;36;20035;-51
2022/11/27 06:33:02;;;;;;;6.00;2.42;;;;;;;7.07;100.00;102082.25;2616408;31;20027;-50
2022/11/27 06:35:33;;;;;;;8.00;2.75;;;;;;;7.04;100.00;102063.63;2615452;36;20073;-48
2022/11/27 06:38:01;;;;;;;4.47;2.40;;;;;;;7.07;100.00;102071.53;2615034;31;20675;-54
2022/11/27 06:40:30;;;;;;;4.32;2.50;;;;;;;6.99;100.00;102071.91;2615258;36;20034;-48
2022/11/27 06:42:58;;;;;;;6.13;2.80;;;;;;;7.00;100.00;102079.03;2614582;36;20038;-54
2022/11/27 06:45:26;;;;;;;6.67;2.50;;;;;;;6.96;100.00;102078.34;2616163;36;20019;-47
2022/11/27 06:47:55;;;;;;;8.25;3.03;;;;;;;6.93;100.00;102069.59;2615811;36;20042;-56
2022/11/27 06:50:23;;;;;;;6.95;2.38;;;;;;;6.89;100.00;102084.06;2615758;31;20406;-49
2022/11/27 06:52:56;;;;;;;6.20;3.00;;;;;;;6.83;100.00;102066.53;2615513;36;20039;-48
2022/11/27 06:55:24;;;;;;;7.25;2.65;;;;;;;6.90;100.00;102075.97;2613640;36;20018;-53
2022/11/27 06:57:52;;;;;;;6.80;2.90;;;;;;;6.79;100.00;102073.88;2614513;36;20034;-53
2022/11/27 07:00:22;;;;;;;7.70;2.63;;;;;;;6.93;100.00;102080.28;2614785;31;20042;-49
2022/11/27 07:02:55;;;;;;;8.00;2.97;;;;;;;6.79;100.00;102073.00;2615935;36;20022;-57
2022/11/27 07:05:25;;;;;;;7.90;2.92;;;;;;;6.75;100.00;102074.97;2616516;31;20027;-47
2022/11/27 07:07:57;;;;;;;7.53;2.88;;;;;;;6.74;100.00;102065.19;2615701;36;20023;-52
2022/11/27 07:10:28;;;;;;;7.97;3.10;;;;;;;6.69;100.00;102061.06;2614552;36;20027;-48
2022/11/27 07:12:56;;;;;;;9.82;2.70;;;;;;;6.82;100.00;102060.31;2615569;31;20408;-50
2022/11/27 07:15:24;;;;;;;7.25;3.00;;;;;;;6.76;100.00;102054.44;2615926;31;20035;-49
2022/11/27 07:17:53;;;;;;;9.10;3.13;;;;;;;6.74;100.00;102040.28;2615674;36;20035;-48
2022/11/27 07:20:21;;;;;;;8.82;3.58;;;;;;;6.72;100.00;102042.19;2615292;36;20039;-55
2022/11/27 07:22:49;;;;;;;6.43;2.85;;;;;;;6.75;100.00;102039.34;2613686;36;20045;-49
2022/11/27 07:25:23;;;;;;;7.65;3.45;;;;;;;6.75;100.00;102031.31;2615679;36;20030;-47
2022/11/27 07:27:51;;;;;;;6.00;2.95;;;;;;;6.76;100.00;102025.88;2614079;36;20034;-49
2022/11/27 07:30:20;;;;;;;4.93;2.40;;;;;;;6.71;100.00;102022.56;2616265;36;20039;-53
2022/11/27 07:32:48;;;;;;;5.47;3.10;;;;;;;6.68;100.00;102021.88;2615458;36;20022;-47
2022/11/27 07:35:16;;;;;;;8.77;3.10;;;;;;;6.63;100.00;102014.94;2615741;36;20033;-52
2022/11/27 07:37:45;;;;;;;9.23;3.35;;;;;;;6.67;100.00;102007.66;2615151;36;20019;-59
2022/11/27 07:40:14;;;;;;;7.75;3.38;;;;;;;6.70;100.00;102010.16;2615058;36;20026;-50
2022/11/27 07:42:45;;;;;;;8.85;3.97;;;;;;;6.66;100.00;102004.09;2615501;36;20027;-47
2022/11/27 07:45:15;;;;;;;12.02;3.50;;;;;;;6.63;100.00;101998.91;2616495;31;20027;-49
2022/11/27 07:47:44;;;;;;;8.93;3.33;;;;;;;6.60;100.00;102007.09;2614805;36;20030;-54
2022/11/27 07:50:13;;;;;;;9.95;3.33;;;;;;;6.65;100.00;101996.16;2615848;36;20023;-51
2022/11/27 07:52:41;;;;;;;;;;;;;;;6.65;100.00;102001.50;2615700;36;20034;-51
2022/11/27 07:55:10;;;;;;;7.35;3.13;;;;;;;6.63;100.00;101993.56;2613985;36;19950;-51
2022/11/27 07:57:39;;;;;;;10.13;3.60;;;;;;;6.55;100.00;101994.91;2614771;36;20045;-47
2022/11/27 08:00:11;;;;;;;8.38;3.00;;;;;;;6.62;100.00;102005.19;2614433;36;20039;-50
2022/11/27 08:02:39;;;;;;;11.43;3.47;;;;;;;6.69;100.00;102004.88;2615693;31;20053;-54
2022/11/27 08:05:09;;;;;;;12.70;3.53;;;;;;;6.68;100.00;102000.47;2615384;31;20030;-55
2022/11/27 08:07:37;;;;;;;9.13;3.35;;;;;;;6.66;100.00;101997.88;2615758;36;20404;-49
2022/11/27 08:10:06;;;;;;;9.65;3.05;;;;;;;6.60;100.00;102004.41;2615212;36;20022;-52
2022/11/27 08:12:34;;;;;;;9.63;3.60;;;;;;;6.70;100.00;101999.44;2615090;36;20031;-48
2022/11/27 08:15:04;;;;;;;10.10;4.13;;;;;;;6.68;100.00;101987.94;2614344;36;20042;-55
2022/11/27 08:17:35;;;;;;;11.50;4.00;;;;;;;6.59;100.00;101993.81;2615830;36;20053;-49
2022/11/27 08:20:03;;;;;;;9.20;3.58;;;;;;;6.53;100.00;101992.31;2615238;36;20030;-49
2022/11/27 08:22:32;;;;;;;9.82;3.90;;;;;;;6.44;100.00;101995.50;2614836;31;20026;-54
2022/11/27 08:25:00;;;;;;;9.15;4.25;;;;;;;6.50;100.00;101992.47;2615474;36;20031;-50
2022/11/27 08:27:28;;;;;;;14.27;4.22;;;;;;;6.59;100.00;101999.16;2616208;31;20019;-54
2022/11/27 08:29:57;;;;;;;7.93;3.65;;;;;;;6.58;100.00;101995.63;2616354;36;20049;-56
2022/11/27 08:32:25;;;;;;;8.38;3.67;;;;;;;6.55;100.00;101998.47;2616356;36;20035;-55
2022/11/27 08:34:56;;;;;;;11.50;3.85;;;;;;;6.43;100.00;101986.63;2616594;36;20031;-50
2022/11/27 08:37:24;;;;;;;10.45;4.13;;;;;;;6.51;100.00;101978.19;2616092;36;20031;-48
2022/11/27 08:39:53;;;;;;;8.35;4.07;;;;;;;6.55;100.00;101982.41;2616279;36;20030;-48
2022/11/27 08:42:21;;;;;;;11.15;4.15;;;;;;;6.57;100.00;101980.50;2615329;36;20046;-57
2022/11/27 08:44:49;;;;;;;8.23;3.85;;;;;;;6.60;100.00;101990.19;2617231;31;20041;-49
2022/11/27 08:47:18;;;;;;;12.40;3.88;;;;;;;6.63;100.00;101982.84;2616514;36;20026;-49
2022/11/27 08:49:46;;;;;;;11.13;4.07;;;;;;;6.63;100.00;101995.38;2615680;36;20089;-49
2022/11/27 08:52:17;;;;;;;11.23;4.68;;;;;;;6.58;100.00;101990.28;2614515;36;20045;-50
2022/11/27 08:54:45;;;;;;;18.15;4.50;;;;;;;6.57;100.00;101996.56;2616147;36;20061;-55
2022/11/27 08:57:16;;;;;;;13.88;4.82;;;;;;;6.53;100.00;102005.69;2614874;36;20042;-51
2022/11/27 08:59:44;;;;;;;8.90;3.97;;;;;;;6.56;100.00;102008.19;2615411;36;20565;-51
2022/11/27 09:02:13;;;;;;;11.50;4.35;;;;;;;6.64;100.00;101989.94;2615366;31;20038;-53
2022/11/27 09:04:41;;;;;;;;;;;;;;;6.58;100.00;101995.63;2616768;36;20543;-50
2022/11/27 09:07:13;;;;;;;17.45;5.63;;;;;;;6.66;100.00;101993.38;2615562;31;19950;-48
2022/11/27 09:09:43;;;;;;;8.48;4.25;;;;;;;6.62;100.00;102002.50;2616816;36;20038;-52
2022/11/27 09:12:12;;;;;;;11.75;4.55;;;;;;;6.55;100.00;102005.59;2611487;31;20034;-55
2022/11/27 09:14:41;;;;;;;13.60;4.90;;;;;;;6.58;100.00;101995.63;2612135;36;20042;-49
2022/11/27 09:17:09;;;;;;;15.87;5.33;;;;;;;6.53;100.00;102003.00;2612777;36;20299;-48
2022/11/27 09:19:37;;;;;;;8.77;4.60;;;;;;;6.62;100.00;101991.81;2613128;31;20485;-54
2022/11/27 09:22:05;;;;;;;13.32;4.50;;;;;;;6.63;100.00;101990.88;2611691;36;20030;-53
2022/11/27 09:24:34;;;;;;;13.85;4.63;;;;;;;6.68;100.00;101993.31;2612141;36;20045;-51
2022/11/27 09:27:05;;;;;;;9.25;4.85;;;;;;;6.62;100.00;101988.28;2612539;36;20034;-50
2022/11/27 09:29:35;;;;;;;15.23;6.15;;;;;;;6.66;100.00;101984.50;2612539;36;20069;-55
2022/11/27 09:32:04;;;;;;;11.73;4.68;;;;;;;6.68;100.00;101977.25;2612118;36;20022;-49
2022/11/27 09:34:32;;;;;;;10.85;5.22;;;;;;;6.78;100.00;101985.66;2612651;31;20042;-55
2022/11/27 09:37:00;;;;;;;14.93;5.67;;;;;;;6.77;100.00;101978.56;2614482;36;20022;-53
2022/11/27 09:39:32;;;;;;;14.13;5.75;;;;;;;6.79;100.00;101971.34;2616031;31;20288;-50
2022/11/27 09:42:03;;;;;;;11.13;5.32;;;;;;;6.78;100.00;101969.59;2615963;36;20026;-49
2022/11/27 09:44:41;;;;;;;15.68;6.38;;;;;;;6.81;100.00;101964.91;2616875;36;20574;-54
2022/11/27 09:47:16;;;;;;;11.65;5.32;;;;;;;6.89;100.00;101967.19;2614329;36;20034;-56
2022/11/27 09:49:49;;;;;;;13.05;5.78;;;;;;;6.93;100.00;101968.72;2612851;36;20124;-49
2022/11/27 09:52:25;;;;;;;11.57;5.60;;;;;;;7.05;100.00;101963.66;2608726;36;20034;-49
2022/11/27 09:54:59;;;;;;;10.90;5.63;;;;;;;7.04;100.00;101961.91;2604588;36;20535;-55
2022/11/27 09:57:32;;;;;;;9.93;5.75;;;;;;;7.09;100.00;101955.34;2612433;36;20589;-54
2022/11/27 10:00:06;;;;;;;10.13;5.65;;;;;;;6.91;100.00;101965.28;2611748;36;20034;-54
2022/11/27 10:02:37;;;;;;;12.75;5.50;;;;;;;7.02;100.00;101945.94;2613535;36;20442;-50
2022/11/27 10:05:15;;;;;;;12.35;6.28;;;;;;;6.95;100.00;101948.13;2611670;36;20035;-54
2022/11/27 10:07:57;;;;;;;13.48;5.60;;;;;;;7.19;100.00;101940.50;2612866;31;20035;-48
2022/11/27 10:10:35;;;;;;;16.88;5.65;;;;;;;7.15;100.00;101940.75;2612074;36;20431;-51
2022/11/27 10:13:16;;;;;;;12.40;5.55;;;;;;;7.27;100.00;101928.50;2614930;36;20039;-49
2022/11/27 10:15:53;;;;;;;12.30;5.93;;;;;;;7.32;100.00;101929.09;2615349;31;20617;-48
2022/11/27 10:18:31;;;;;;;9.25;5.30;;;;;;;7.27;100.00;101929.34;2612828;36;20045;-53
2022/11/27 10:21:05;;;;;;;13.32;6.00;;;;;;;7.32;100.00;101926.44;2613455;36;20034;-48
2022/11/27 10:23:47;;;;;;;14.95;5.97;;;;;;;7.24;100.00;101921.50;2613649;54;20034;-55
2022/11/27 10:26:20;;;;;;;10.82;6.18;;;;;;;7.19;100.00;101927.13;2610938;36;20038;-50
2022/11/27 10:28:58;;;;;;;11.13;5.53;;;;;;;7.27;100.00;101929.34;2612618;36;20057;-49
2022/11/27 10:31:37;;;;;;;16.05;6.05;;;;;;;7.23;100.00;101922.47;2612897;36;20073;-57
2022/11/27 10:34:08;;;;;;;14.52;6.05;;;;;;;7.22;100.00;101907.34;2611437;36;20030;-51
2022/11/27 10:36:42;;;;;;;13.05;5.53;;;;;;;7.28;100.00;101914.16;2611177;36;20042;-57
2022/11/27 10:39:17;;;;;;;14.10;6.00;;;;;;;7.18;100.00;101906.66;2613042;36;20038;-50
2022/11/27 10:41:53;;;;;;;17.08;6.13;;;;;;;7.20;100.00;101906.56;2615559;36;20418;-53
2022/11/27 10:44:30;;;;;;;11.63;5.82;;;;;;;7.31;100.00;101898.75;2613799;36;20471;-49
2022/11/27 10:47:05;;;;;;;11.18;6.00;;;;;;;7.37;100.00;101898.41;2613560;31;20594;-52
2022/11/27 10:49:35;;;;;;;12.30;5.63;;;;;;;7.43;100.00;101896.31;2614696;36;20038;-51
2022/11/27 10:52:04;;;;;;;10.15;5.60;;;;;;;7.39;100.00;101889.41;2612628;31;20031;-53
2022/11/27 10:54:38;;;;;;;13.15;6.32;;;;;;;7.39;100.00;101889.41;2604628;36;20416;-51
2022/11/27 10:57:38;;;;;;;13.10;5.82;;;;;;;7.41;100.00;101887.53;2609958;36;20030;-51
2022/11/27 11:00:13;;;;;;;12.07;5.80;;;;;;;7.33;100.00;101888.84;2610188;36;20034;-52
2022/11/27 11:02:44;;;;;;;11.88;6.25;;;;;;;7.38;100.00;101877.84;2609769;36;20042;-53
2022/11/27 11:05:15;;;;;;;11.48;5.53;;;;;;;7.51;100.00;101884.22;2600901;36;20046;-59
2022/11/27 11:07:43;;;;;;;10.15;5.60;;;;;;;7.46;100.00;101872.03;2610142;31;20386;-54
2022/11/27 11:10:26;;;;;;;11.48;5.95;;;;;;;7.53;100.00;101860.00;2608455;36;20061;-52
2022/11/27 11:13:14;;;;;;;11.05;6.15;;;;;;;7.47;100.00;101855.03;2608763;36;20884;-49
2022/11/27 11:15:53;;;;;;;10.50;5.38;;;;;;;7.58;100.00;101852.53;2610337;36;20393;-50
2022/11/27 11:18:26;;;;;;;13.85;7.03;;;;;;;7.44;100.00;101849.84;2612081;36;20034;-49
2022/11/27 11:20:56;;;;;;;12.73;6.07;;;;;;;7.45;100.00;101840.84;2612540;36;20038;-49
2022/11/27 11:23:35;;;;;;;15.73;6.00;;;;;;;7.59;100.00;101838.19;2612157;36;20031;-54
2022/11/27 11:26:06;;;;;;;;;;;;;;;7.60;100.00;101841.75;2614271;31;20291;-50
2022/11/27 11:28:45;;;;;;;10.98;5.22;;;;;;;7.54;100.00;101834.94;2612885;36;19950;-49
2022/11/27 11:31:19;;;;;;;14.65;5.85;;;;;;;7.66;100.00;101836.03;2613156;36;20026;-49
2022/11/27 11:34:00;;;;;;;11.20;6.13;;;;;;;7.65;100.00;101826.25;2613171;36;20042;-50
2022/11/27 11:36:28;;;;;;;9.73;5.30;;;;;;;7.70;100.00;101813.44;2613992;31;20037;-52
2022/11/27 11:38:57;;;;;;;10.20;5.40;;;;;;;7.75;100.00;101815.84;2612318;36;20085;-48
2022/11/27 11:41:25;;;;;;;11.13;5.50;;;;;;;7.93;100.00;101808.47;2613778;31;20038;-51